sensor_id;sensor_type;location;lat;lon;timestamp;temperature;humidity
3330;DHT22;1677;49.576;10.990;2022-09-09T00:04:29;17.20;99.90
3330;DHT22;1677;49.576;10.990;2022-09-09T00:09:28;16.80;99.90
3330;DHT22;1677;49.576;10.990;2022-09-09T00:12:02;16.50;99.90
3330;DHT22;1677;49.576;10.990;2022-09-09T00:14:53;16.40;99.90
3330;DHT22;1677;49.576;10.990;2022-09-09T00:17:39;15.80;99.90
3330;DHT22;1677;49.576;10.990;2022-09-09T00:20:13;15.60;99.90
3330;DHT22;1677;49.576;10.990;2022-09-09T00:22:46;15.50;99.90
3330;DHT22;1677;49.576;10.990;2022-09-09T00:25:28;15.20;99.90
3330;DHT22;1677;49.576;10.990;2022-09-09T00:27:56;15.00;99.90
3330;DHT22;1677;49.576;10.990;2022-09-09T00:30:27;14.80;99.90
3330;DHT22;1677;49.576;10.990;2022-09-09T00:33:00;14.70;99.90
3330;DHT22;1677;49.576;10.990;2022-09-09T00:35:31;14.50;99.90
3330;DHT22;1677;49.576;10.990;2022-09-09T00:38:12;14.60;99.90
3330;DHT22;1677;49.576;10.990;2022-09-09T00:40:49;14.50;99.90
3330;DHT22;1677;49.576;10.990;2022-09-09T00:46:14;14.40;99.90
3330;DHT22;1677;49.576;10.990;2022-09-09T00:48:54;14.40;99.90
3330;DHT22;1677;49.576;10.990;2022-09-09T01:02:28;16.10;99.90
3330;DHT22;1677;49.576;10.990;2022-09-09T01:05:02;16.70;99.90
3330;DHT22;1677;49.576;10.990;2022-09-09T01:07:30;16.80;99.90
3330;DHT22;1677;49.576;10.990;2022-09-09T01:09:59;16.60;99.90
3330;DHT22;1677;49.576;10.990;2022-09-09T01:12:38;16.20;99.90
3330;DHT22;1677;49.576;10.990;2022-09-09T01:15:12;15.60;99.90
3330;DHT22;1677;49.576;10.990;2022-09-09T01:27:57;14.50;99.90
3330;DHT22;1677;49.576;10.990;2022-09-09T01:30:24;14.40;99.90
3330;DHT22;1677;49.576;10.990;2022-09-09T01:32:55;14.30;99.90
3330;DHT22;1677;49.576;10.990;2022-09-09T01:35:57;14.20;99.90
3330;DHT22;1677;49.576;10.990;2022-09-09T01:38:22;14.30;99.90
3330;DHT22;1677;49.576;10.990;2022-09-09T01:40:49;14.20;99.90
3330;DHT22;1677;49.576;10.990;2022-09-09T01:43:21;14.10;99.90
3330;DHT22;1677;49.576;10.990;2022-09-09T01:45:49;14.20;99.90
3330;DHT22;1677;49.576;10.990;2022-09-09T01:48:18;14.20;99.90
3330;DHT22;1677;49.576;10.990;2022-09-09T01:50:44;14.20;99.90
3330;DHT22;1677;49.576;10.990;2022-09-09T01:53:10;14.10;99.90
3330;DHT22;1677;49.576;10.990;2022-09-09T01:55:42;14.40;99.90
3330;DHT22;1677;49.576;10.990;2022-09-09T01:58:45;15.10;99.90
3330;DHT22;1677;49.576;10.990;2022-09-09T02:03:44;16.10;99.90
3330;DHT22;1677;49.576;10.990;2022-09-09T02:06:27;16.50;99.90
3330;DHT22;1677;49.576;10.990;2022-09-09T02:08:56;16.50;99.90
3330;DHT22;1677;49.576;10.990;2022-09-09T02:11:25;16.40;99.90
3330;DHT22;1677;49.576;10.990;2022-09-09T02:14:05;16.10;99.90
3330;DHT22;1677;49.576;10.990;2022-09-09T02:19:28;15.60;99.90
3330;DHT22;1677;49.576;10.990;2022-09-09T02:21:57;15.60;99.90
3330;DHT22;1677;49.576;10.990;2022-09-09T02:24:26;15.30;99.90
3330;DHT22;1677;49.576;10.990;2022-09-09T02:26:53;15.10;99.90
3330;DHT22;1677;49.576;10.990;2022-09-09T02:29:27;14.90;99.90
3330;DHT22;1677;49.576;10.990;2022-09-09T02:31:55;14.70;99.90
3330;DHT22;1677;49.576;10.990;2022-09-09T02:34:23;14.50;99.90
3330;DHT22;1677;49.576;10.990;2022-09-09T02:36:51;14.40;99.90
3330;DHT22;1677;49.576;10.990;2022-09-09T02:39:19;14.40;99.90
3330;DHT22;1677;49.576;10.990;2022-09-09T02:41:44;14.40;99.90
3330;DHT22;1677;49.576;10.990;2022-09-09T02:44:12;14.40;99.90
3330;DHT22;1677;49.576;10.990;2022-09-09T02:49:57;14.40;99.90
3330;DHT22;1677;49.576;10.990;2022-09-09T02:52:46;14.50;99.90
3330;DHT22;1677;49.576;10.990;2022-09-09T02:57:58;16.00;99.90
3330;DHT22;1677;49.576;10.990;2022-09-09T03:00:28;17.20;99.90
3330;DHT22;1677;49.576;10.990;2022-09-09T03:02:54;17.40;99.90
3330;DHT22;1677;49.576;10.990;2022-09-09T03:05:20;17.30;99.90
3330;DHT22;1677;49.576;10.990;2022-09-09T03:07:46;16.90;99.90
3330;DHT22;1677;49.576;10.990;2022-09-09T03:10:12;16.40;99.90
3330;DHT22;1677;49.576;10.990;2022-09-09T03:12:39;16.10;99.90
3330;DHT22;1677;49.576;10.990;2022-09-09T03:15:05;15.90;99.90
3330;DHT22;1677;49.576;10.990;2022-09-09T03:17:31;15.50;99.90
3330;DHT22;1677;49.576;10.990;2022-09-09T03:19:57;15.20;99.90
3330;DHT22;1677;49.576;10.990;2022-09-09T03:22:24;14.90;99.90
3330;DHT22;1677;49.576;10.990;2022-09-09T03:24:51;14.70;99.90
3330;DHT22;1677;49.576;10.990;2022-09-09T03:27:16;14.60;99.90
3330;DHT22;1677;49.576;10.990;2022-09-09T03:29:42;14.60;99.90
3330;DHT22;1677;49.576;10.990;2022-09-09T03:32:08;14.60;99.90
3330;DHT22;1677;49.576;10.990;2022-09-09T03:34:35;14.50;99.90
3330;DHT22;1677;49.576;10.990;2022-09-09T03:37:04;14.40;99.90
3330;DHT22;1677;49.576;10.990;2022-09-09T03:39:30;14.50;99.90
3330;DHT22;1677;49.576;10.990;2022-09-09T03:41:56;14.60;99.90
3330;DHT22;1677;49.576;10.990;2022-09-09T03:44:22;14.90;99.90
3330;DHT22;1677;49.576;10.990;2022-09-09T03:46:47;15.10;99.90
3330;DHT22;1677;49.576;10.990;2022-09-09T03:49:13;15.10;99.90
3330;DHT22;1677;49.576;10.990;2022-09-09T03:51:38;14.90;99.90
3330;DHT22;1677;49.576;10.990;2022-09-09T03:54:06;15.00;99.90
3330;DHT22;1677;49.576;10.990;2022-09-09T03:56:34;15.70;99.90
3330;DHT22;1677;49.576;10.990;2022-09-09T03:58:59;16.30;99.90
3330;DHT22;1677;49.576;10.990;2022-09-09T04:01:25;16.70;99.90
3330;DHT22;1677;49.576;10.990;2022-09-09T04:03:50;16.80;99.90
3330;DHT22;1677;49.576;10.990;2022-09-09T04:06:17;16.60;99.90
3330;DHT22;1677;49.576;10.990;2022-09-09T04:08:43;16.40;99.90
3330;DHT22;1677;49.576;10.990;2022-09-09T04:11:10;16.30;99.90
3330;DHT22;1677;49.576;10.990;2022-09-09T04:13:37;15.80;99.90
3330;DHT22;1677;49.576;10.990;2022-09-09T04:16:04;16.00;99.90
3330;DHT22;1677;49.576;10.990;2022-09-09T04:18:30;15.70;99.90
3330;DHT22;1677;49.576;10.990;2022-09-09T04:20:57;15.70;99.90
3330;DHT22;1677;49.576;10.990;2022-09-09T04:23:24;15.50;99.90
3330;DHT22;1677;49.576;10.990;2022-09-09T04:25:52;15.40;99.90
3330;DHT22;1677;49.576;10.990;2022-09-09T04:28:19;15.40;99.90
3330;DHT22;1677;49.576;10.990;2022-09-09T04:30:45;15.30;99.90
3330;DHT22;1677;49.576;10.990;2022-09-09T04:33:12;15.20;99.90
3330;DHT22;1677;49.576;10.990;2022-09-09T04:35:39;15.30;99.90
3330;DHT22;1677;49.576;10.990;2022-09-09T04:38:05;15.20;99.90
3330;DHT22;1677;49.576;10.990;2022-09-09T04:40:33;15.30;99.90
3330;DHT22;1677;49.576;10.990;2022-09-09T04:42:59;15.30;99.90
3330;DHT22;1677;49.576;10.990;2022-09-09T04:45:25;15.60;99.90
3330;DHT22;1677;49.576;10.990;2022-09-09T04:47:52;15.60;99.90
3330;DHT22;1677;49.576;10.990;2022-09-09T04:50:17;15.70;99.90
3330;DHT22;1677;49.576;10.990;2022-09-09T04:52:44;16.30;99.90
3330;DHT22;1677;49.576;10.990;2022-09-09T04:55:10;16.90;99.90
3330;DHT22;1677;49.576;10.990;2022-09-09T04:57:35;17.90;99.90
3330;DHT22;1677;49.576;10.990;2022-09-09T05:00:01;17.90;99.90
3330;DHT22;1677;49.576;10.990;2022-09-09T05:02:28;17.90;99.90
3330;DHT22;1677;49.576;10.990;2022-09-09T05:04:53;17.80;99.90
3330;DHT22;1677;49.576;10.990;2022-09-09T05:07:19;17.60;99.90
3330;DHT22;1677;49.576;10.990;2022-09-09T05:09:44;17.10;99.90
3330;DHT22;1677;49.576;10.990;2022-09-09T05:12:10;16.80;99.90
3330;DHT22;1677;49.576;10.990;2022-09-09T05:14:36;16.70;99.90
3330;DHT22;1677;49.576;10.990;2022-09-09T05:17:03;16.60;99.90
3330;DHT22;1677;49.576;10.990;2022-09-09T05:19:28;16.40;99.90
3330;DHT22;1677;49.576;10.990;2022-09-09T05:21:56;16.10;99.90
3330;DHT22;1677;49.576;10.990;2022-09-09T05:24:22;15.70;99.90
3330;DHT22;1677;49.576;10.990;2022-09-09T05:26:48;15.50;99.90
3330;DHT22;1677;49.576;10.990;2022-09-09T05:29:14;15.40;99.90
3330;DHT22;1677;49.576;10.990;2022-09-09T05:31:40;15.50;99.90
3330;DHT22;1677;49.576;10.990;2022-09-09T05:34:06;15.40;99.90
3330;DHT22;1677;49.576;10.990;2022-09-09T05:36:32;15.50;99.90
3330;DHT22;1677;49.576;10.990;2022-09-09T05:38:57;15.80;99.90
3330;DHT22;1677;49.576;10.990;2022-09-09T05:41:23;16.00;99.90
3330;DHT22;1677;49.576;10.990;2022-09-09T05:43:49;16.10;99.90
3330;DHT22;1677;49.576;10.990;2022-09-09T05:46:17;16.00;99.90
3330;DHT22;1677;49.576;10.990;2022-09-09T05:48:44;15.90;99.90
3330;DHT22;1677;49.576;10.990;2022-09-09T05:51:15;16.30;99.90
3330;DHT22;1677;49.576;10.990;2022-09-09T05:53:42;17.10;99.90
3330;DHT22;1677;49.576;10.990;2022-09-09T05:56:10;17.70;99.90
3330;DHT22;1677;49.576;10.990;2022-09-09T05:58:37;18.10;99.90
3330;DHT22;1677;49.576;10.990;2022-09-09T06:01:14;18.60;99.90
3330;DHT22;1677;49.576;10.990;2022-09-09T06:03:41;18.20;99.90
3330;DHT22;1677;49.576;10.990;2022-09-09T06:06:09;17.60;99.90
3330;DHT22;1677;49.576;10.990;2022-09-09T06:08:37;17.10;99.90
3330;DHT22;1677;49.576;10.990;2022-09-09T06:11:09;17.00;99.90
3330;DHT22;1677;49.576;10.990;2022-09-09T06:13:35;16.60;99.90
3330;DHT22;1677;49.576;10.990;2022-09-09T06:16:03;16.50;99.90
3330;DHT22;1677;49.576;10.990;2022-09-09T06:18:29;16.30;99.90
3330;DHT22;1677;49.576;10.990;2022-09-09T06:20:57;16.20;99.90
3330;DHT22;1677;49.576;10.990;2022-09-09T06:23:23;16.10;99.90
3330;DHT22;1677;49.576;10.990;2022-09-09T06:25:48;15.90;99.90
3330;DHT22;1677;49.576;10.990;2022-09-09T06:28:15;15.80;99.90
3330;DHT22;1677;49.576;10.990;2022-09-09T06:30:41;15.80;99.90
3330;DHT22;1677;49.576;10.990;2022-09-09T06:33:07;16.00;99.90
3330;DHT22;1677;49.576;10.990;2022-09-09T06:35:32;16.10;99.90
3330;DHT22;1677;49.576;10.990;2022-09-09T06:37:58;16.20;99.90
3330;DHT22;1677;49.576;10.990;2022-09-09T06:40:24;16.20;99.90
3330;DHT22;1677;49.576;10.990;2022-09-09T06:42:50;16.20;99.90
3330;DHT22;1677;49.576;10.990;2022-09-09T06:45:16;16.10;99.90
3330;DHT22;1677;49.576;10.990;2022-09-09T06:47:43;16.30;99.90
3330;DHT22;1677;49.576;10.990;2022-09-09T06:50:09;16.90;99.90
3330;DHT22;1677;49.576;10.990;2022-09-09T06:52:35;17.40;99.90
3330;DHT22;1677;49.576;10.990;2022-09-09T06:55:01;18.10;99.90
3330;DHT22;1677;49.576;10.990;2022-09-09T06:57:28;18.60;99.90
3330;DHT22;1677;49.576;10.990;2022-09-09T06:59:53;18.70;99.90
3330;DHT22;1677;49.576;10.990;2022-09-09T07:02:19;18.40;99.90
3330;DHT22;1677;49.576;10.990;2022-09-09T07:04:45;18.20;99.90
3330;DHT22;1677;49.576;10.990;2022-09-09T07:07:10;18.00;99.90
3330;DHT22;1677;49.576;10.990;2022-09-09T07:09:39;17.60;99.90
3330;DHT22;1677;49.576;10.990;2022-09-09T07:12:05;17.40;99.90
3330;DHT22;1677;49.576;10.990;2022-09-09T07:14:31;17.30;99.90
3330;DHT22;1677;49.576;10.990;2022-09-09T07:16:58;17.20;99.90
3330;DHT22;1677;49.576;10.990;2022-09-09T07:19:23;17.10;99.90
3330;DHT22;1677;49.576;10.990;2022-09-09T07:21:49;16.90;99.90
3330;DHT22;1677;49.576;10.990;2022-09-09T07:24:15;16.90;99.90
3330;DHT22;1677;49.576;10.990;2022-09-09T07:26:40;16.90;99.90
3330;DHT22;1677;49.576;10.990;2022-09-09T07:29:07;17.10;99.90
3330;DHT22;1677;49.576;10.990;2022-09-09T07:31:35;17.10;99.90
3330;DHT22;1677;49.576;10.990;2022-09-09T07:34:02;16.90;99.90
3330;DHT22;1677;49.576;10.990;2022-09-09T07:36:39;17.00;99.90
3330;DHT22;1677;49.576;10.990;2022-09-09T07:39:12;17.00;99.90
3330;DHT22;1677;49.576;10.990;2022-09-09T07:41:47;17.20;99.90
3330;DHT22;1677;49.576;10.990;2022-09-09T07:44:18;17.40;99.90
3330;DHT22;1677;49.576;10.990;2022-09-09T07:46:44;17.50;99.90
3330;DHT22;1677;49.576;10.990;2022-09-09T07:49:11;18.00;99.90
3330;DHT22;1677;49.576;10.990;2022-09-09T07:51:39;18.50;99.90
3330;DHT22;1677;49.576;10.990;2022-09-09T07:54:08;19.00;99.90
3330;DHT22;1677;49.576;10.990;2022-09-09T07:56:34;19.60;99.90
3330;DHT22;1677;49.576;10.990;2022-09-09T07:59:00;19.80;99.90
3330;DHT22;1677;49.576;10.990;2022-09-09T08:01:29;19.50;99.90
3330;DHT22;1677;49.576;10.990;2022-09-09T08:03:56;19.00;99.90
3330;DHT22;1677;49.576;10.990;2022-09-09T08:06:25;18.30;99.90
3330;DHT22;1677;49.576;10.990;2022-09-09T08:08:52;18.20;99.90
3330;DHT22;1677;49.576;10.990;2022-09-09T08:11:18;18.00;99.90
3330;DHT22;1677;49.576;10.990;2022-09-09T08:13:44;18.10;99.90
3330;DHT22;1677;49.576;10.990;2022-09-09T08:16:28;18.10;99.90
3330;DHT22;1677;49.576;10.990;2022-09-09T08:18:55;18.10;99.90
3330;DHT22;1677;49.576;10.990;2022-09-09T08:21:23;18.10;99.90
3330;DHT22;1677;49.576;10.990;2022-09-09T08:23:51;18.10;99.90
3330;DHT22;1677;49.576;10.990;2022-09-09T08:26:23;18.10;99.90
3330;DHT22;1677;49.576;10.990;2022-09-09T08:28:50;18.10;99.90
3330;DHT22;1677;49.576;10.990;2022-09-09T08:31:22;18.20;99.90
3330;DHT22;1677;49.576;10.990;2022-09-09T08:33:48;18.20;99.90
3330;DHT22;1677;49.576;10.990;2022-09-09T08:36:17;18.20;99.90
3330;DHT22;1677;49.576;10.990;2022-09-09T08:38:43;18.40;99.90
3330;DHT22;1677;49.576;10.990;2022-09-09T08:44:10;19.20;99.90
3330;DHT22;1677;49.576;10.990;2022-09-09T08:51:57;20.90;99.90
3330;DHT22;1677;49.576;10.990;2022-09-09T08:54:23;21.50;99.90
3330;DHT22;1677;49.576;10.990;2022-09-09T08:56:53;21.80;99.80
3330;DHT22;1677;49.576;10.990;2022-09-09T08:59:19;21.50;99.70
3330;DHT22;1677;49.576;10.990;2022-09-09T09:02:03;21.20;99.90
3330;DHT22;1677;49.576;10.990;2022-09-09T09:04:37;20.90;99.90
3330;DHT22;1677;49.576;10.990;2022-09-09T09:10:03;20.60;99.90
3330;DHT22;1677;49.576;10.990;2022-09-09T09:12:37;20.50;99.90
3330;DHT22;1677;49.576;10.990;2022-09-09T09:15:14;20.60;99.90
3330;DHT22;1677;49.576;10.990;2022-09-09T09:17:41;20.60;99.90
3330;DHT22;1677;49.576;10.990;2022-09-09T09:20:13;20.70;99.90
3330;DHT22;1677;49.576;10.990;2022-09-09T09:22:49;20.90;99.90
3330;DHT22;1677;49.576;10.990;2022-09-09T09:25:23;20.90;99.90
3330;DHT22;1677;49.576;10.990;2022-09-09T09:27:59;20.90;99.90
3330;DHT22;1677;49.576;10.990;2022-09-09T09:30:31;21.00;99.90
3330;DHT22;1677;49.576;10.990;2022-09-09T09:33:11;21.10;99.90
3330;DHT22;1677;49.576;10.990;2022-09-09T09:35:39;21.30;99.80
3330;DHT22;1677;49.576;10.990;2022-09-09T09:38:25;21.90;98.60
3330;DHT22;1677;49.576;10.990;2022-09-09T09:40:54;22.30;96.70
3330;DHT22;1677;49.576;10.990;2022-09-09T09:43:33;22.50;95.80
3330;DHT22;1677;49.576;10.990;2022-09-09T09:45:59;23.00;95.60
3330;DHT22;1677;49.576;10.990;2022-09-09T09:48:26;23.40;94.30
3330;DHT22;1677;49.576;10.990;2022-09-09T09:50:58;23.60;93.90
3330;DHT22;1677;49.576;10.990;2022-09-09T09:53:31;23.20;93.70
3330;DHT22;1677;49.576;10.990;2022-09-09T09:56:12;22.90;93.60
3330;DHT22;1677;49.576;10.990;2022-09-09T10:01:30;22.50;95.40
3330;DHT22;1677;49.576;10.990;2022-09-09T10:04:01;22.70;95.10
3330;DHT22;1677;49.576;10.990;2022-09-09T10:06:34;23.00;94.30
3330;DHT22;1677;49.576;10.990;2022-09-09T10:09:02;23.80;92.40
3330;DHT22;1677;49.576;10.990;2022-09-09T10:11:46;24.40;91.30
3330;DHT22;1677;49.576;10.990;2022-09-09T10:20:12;25.00;87.50
3330;DHT22;1677;49.576;10.990;2022-09-09T10:22:33;24.80;87.70
3330;DHT22;1677;49.576;10.990;2022-09-09T10:30:18;27.70;75.30
3330;DHT22;1677;49.576;10.990;2022-09-09T10:35:44;29.40;65.70
3330;DHT22;1677;49.576;10.990;2022-09-09T10:43:32;28.10;58.20
3330;DHT22;1677;49.576;10.990;2022-09-09T10:52:15;26.00;65.80
3330;DHT22;1677;49.576;10.990;2022-09-09T10:54:59;24.80;72.60
3330;DHT22;1677;49.576;10.990;2022-09-09T10:57:33;24.10;74.70
3330;DHT22;1677;49.576;10.990;2022-09-09T11:00:29;23.50;78.80
3330;DHT22;1677;49.576;10.990;2022-09-09T11:02:56;23.60;79.80
3330;DHT22;1677;49.576;10.990;2022-09-09T11:05:29;23.50;80.20
3330;DHT22;1677;49.576;10.990;2022-09-09T11:07:59;23.50;80.80
3330;DHT22;1677;49.576;10.990;2022-09-09T11:10:49;23.80;80.20
3330;DHT22;1677;49.576;10.990;2022-09-09T11:13:18;25.00;78.80
3330;DHT22;1677;49.576;10.990;2022-09-09T11:15:49;26.60;70.60
3330;DHT22;1677;49.576;10.990;2022-09-09T11:18:21;27.80;67.10
3330;DHT22;1677;49.576;10.990;2022-09-09T11:20:51;29.50;59.80
3330;DHT22;1677;49.576;10.990;2022-09-09T11:23:26;30.40;57.00
3330;DHT22;1677;49.576;10.990;2022-09-09T11:25:58;31.60;50.00
3330;DHT22;1677;49.576;10.990;2022-09-09T11:28:45;31.50;48.30
3330;DHT22;1677;49.576;10.990;2022-09-09T11:31:33;30.80;47.80
3330;DHT22;1677;49.576;10.990;2022-09-09T11:42:22;28.50;49.60
3330;DHT22;1677;49.576;10.990;2022-09-09T11:44:48;28.20;50.60
3330;DHT22;1677;49.576;10.990;2022-09-09T11:49:51;27.20;51.30
3330;DHT22;1677;49.576;10.990;2022-09-09T11:52:42;26.90;54.70
3330;DHT22;1677;49.576;10.990;2022-09-09T11:55:27;26.40;55.00
3330;DHT22;1677;49.576;10.990;2022-09-09T11:57:59;26.00;57.60
3330;DHT22;1677;49.576;10.990;2022-09-09T12:00:43;25.70;58.80
3330;DHT22;1677;49.576;10.990;2022-09-09T12:03:34;25.30;58.60
3330;DHT22;1677;49.576;10.990;2022-09-09T12:06:28;25.20;59.20
3330;DHT22;1677;49.576;10.990;2022-09-09T12:15:02;26.80;53.20
3330;DHT22;1677;49.576;10.990;2022-09-09T12:17:31;25.80;55.20
3330;DHT22;1677;49.576;10.990;2022-09-09T12:25:57;26.40;57.00
3330;DHT22;1677;49.576;10.990;2022-09-09T12:31:20;26.70;53.30
3330;DHT22;1677;49.576;10.990;2022-09-09T12:33:48;26.70;53.70
3330;DHT22;1677;49.576;10.990;2022-09-09T12:36:16;26.60;54.70
3330;DHT22;1677;49.576;10.990;2022-09-09T12:38:43;26.40;53.10
3330;DHT22;1677;49.576;10.990;2022-09-09T12:43:45;25.70;55.80
3330;DHT22;1677;49.576;10.990;2022-09-09T12:46:21;25.20;56.70
3330;DHT22;1677;49.576;10.990;2022-09-09T12:48:48;24.50;60.30
3330;DHT22;1677;49.576;10.990;2022-09-09T12:51:26;23.90;63.30
3330;DHT22;1677;49.576;10.990;2022-09-09T12:53:52;23.50;65.10
3330;DHT22;1677;49.576;10.990;2022-09-09T12:56:27;23.20;67.60
3330;DHT22;1677;49.576;10.990;2022-09-09T12:58:55;22.90;81.70
3330;DHT22;1677;49.576;10.990;2022-09-09T13:01:28;22.80;89.90
3330;DHT22;1677;49.576;10.990;2022-09-09T13:03:55;22.70;94.70
3330;DHT22;1677;49.576;10.990;2022-09-09T13:08:48;22.70;98.90
3330;DHT22;1677;49.576;10.990;2022-09-09T13:11:19;22.50;99.90
3330;DHT22;1677;49.576;10.990;2022-09-09T13:13:54;22.00;99.90
3330;DHT22;1677;49.576;10.990;2022-09-09T13:16:26;21.70;99.90
3330;DHT22;1677;49.576;10.990;2022-09-09T13:19:09;21.10;99.90
3330;DHT22;1677;49.576;10.990;2022-09-09T13:21:39;20.70;99.90
3330;DHT22;1677;49.576;10.990;2022-09-09T13:24:32;20.30;99.90
3330;DHT22;1677;49.576;10.990;2022-09-09T13:27:04;19.90;99.90
3330;DHT22;1677;49.576;10.990;2022-09-09T13:29:31;19.80;99.90
3330;DHT22;1677;49.576;10.990;2022-09-09T13:32:16;20.10;99.90
3330;DHT22;1677;49.576;10.990;2022-09-09T13:34:51;20.50;99.90
3330;DHT22;1677;49.576;10.990;2022-09-09T13:37:30;20.70;99.90
3330;DHT22;1677;49.576;10.990;2022-09-09T13:39:56;20.90;99.90
3330;DHT22;1677;49.576;10.990;2022-09-09T13:42:30;21.00;99.90
3330;DHT22;1677;49.576;10.990;2022-09-09T13:44:57;21.00;99.90
3330;DHT22;1677;49.576;10.990;2022-09-09T13:47:34;21.00;99.90
3330;DHT22;1677;49.576;10.990;2022-09-09T13:52:48;21.60;99.90
3330;DHT22;1677;49.576;10.990;2022-09-09T13:55:15;22.40;99.90
3330;DHT22;1677;49.576;10.990;2022-09-09T13:57:51;22.90;99.90
3330;DHT22;1677;49.576;10.990;2022-09-09T14:00:16;23.00;99.90
3330;DHT22;1677;49.576;10.990;2022-09-09T14:02:42;23.00;99.90
3330;DHT22;1677;49.576;10.990;2022-09-09T14:05:09;22.90;99.90
3330;DHT22;1677;49.576;10.990;2022-09-09T14:07:36;22.90;99.90
3330;DHT22;1677;49.576;10.990;2022-09-09T14:10:04;22.80;99.90
3330;DHT22;1677;49.576;10.990;2022-09-09T14:12:30;22.40;99.90
3330;DHT22;1677;49.576;10.990;2022-09-09T14:14:55;22.00;99.90
3330;DHT22;1677;49.576;10.990;2022-09-09T14:17:21;21.50;99.90
3330;DHT22;1677;49.576;10.990;2022-09-09T14:19:47;21.30;99.90
3330;DHT22;1677;49.576;10.990;2022-09-09T14:22:13;21.30;99.90
3330;DHT22;1677;49.576;10.990;2022-09-09T14:24:39;21.20;99.90
3330;DHT22;1677;49.576;10.990;2022-09-09T14:27:04;21.00;99.90
3330;DHT22;1677;49.576;10.990;2022-09-09T14:29:30;20.90;99.90
3330;DHT22;1677;49.576;10.990;2022-09-09T14:31:55;20.90;99.90
3330;DHT22;1677;49.576;10.990;2022-09-09T14:34:21;20.90;99.90
3330;DHT22;1677;49.576;10.990;2022-09-09T14:36:46;20.70;99.90
3330;DHT22;1677;49.576;10.990;2022-09-09T14:39:12;20.70;99.90
3330;DHT22;1677;49.576;10.990;2022-09-09T14:41:38;20.60;99.90
3330;DHT22;1677;49.576;10.990;2022-09-09T14:44:03;20.80;99.90
3330;DHT22;1677;49.576;10.990;2022-09-09T14:46:29;21.50;99.90
3330;DHT22;1677;49.576;10.990;2022-09-09T14:48:54;22.70;99.90
3330;DHT22;1677;49.576;10.990;2022-09-09T14:51:22;23.00;99.90
3330;DHT22;1677;49.576;10.990;2022-09-09T14:53:51;23.00;99.90
3330;DHT22;1677;49.576;10.990;2022-09-09T14:56:19;23.10;99.90
3330;DHT22;1677;49.576;10.990;2022-09-09T14:58:47;23.20;99.90
3330;DHT22;1677;49.576;10.990;2022-09-09T15:01:15;23.00;99.90
3330;DHT22;1677;49.576;10.990;2022-09-09T15:03:43;22.40;99.90
3330;DHT22;1677;49.576;10.990;2022-09-09T15:06:13;21.80;99.90
3330;DHT22;1677;49.576;10.990;2022-09-09T15:08:42;21.40;99.90
3330;DHT22;1677;49.576;10.990;2022-09-09T15:11:08;21.10;99.90
3330;DHT22;1677;49.576;10.990;2022-09-09T15:13:36;20.70;99.90
3330;DHT22;1677;49.576;10.990;2022-09-09T15:16:13;20.60;99.90
3330;DHT22;1677;49.576;10.990;2022-09-09T15:18:39;20.50;99.90
3330;DHT22;1677;49.576;10.990;2022-09-09T15:21:13;20.50;99.90
3330;DHT22;1677;49.576;10.990;2022-09-09T15:23:39;20.30;99.90
3330;DHT22;1677;49.576;10.990;2022-09-09T15:26:05;20.20;99.90
3330;DHT22;1677;49.576;10.990;2022-09-09T15:28:32;20.20;99.90
3330;DHT22;1677;49.576;10.990;2022-09-09T15:31:11;20.10;99.90
3330;DHT22;1677;49.576;10.990;2022-09-09T15:33:40;19.90;99.90
3330;DHT22;1677;49.576;10.990;2022-09-09T15:36:23;20.00;99.90
3330;DHT22;1677;49.576;10.990;2022-09-09T15:38:49;20.50;99.90
3330;DHT22;1677;49.576;10.990;2022-09-09T15:41:16;21.10;99.90
3330;DHT22;1677;49.576;10.990;2022-09-09T15:44:01;21.60;99.90
3330;DHT22;1677;49.576;10.990;2022-09-09T15:46:30;21.90;99.90
3330;DHT22;1677;49.576;10.990;2022-09-09T15:49:15;21.90;99.90
3330;DHT22;1677;49.576;10.990;2022-09-09T15:51:42;22.20;99.90
3330;DHT22;1677;49.576;10.990;2022-09-09T15:54:13;22.10;99.90
3330;DHT22;1677;49.576;10.990;2022-09-09T15:56:39;21.70;99.90
3330;DHT22;1677;49.576;10.990;2022-09-09T15:59:05;21.30;99.90
3330;DHT22;1677;49.576;10.990;2022-09-09T16:01:31;20.90;99.90
3330;DHT22;1677;49.576;10.990;2022-09-09T16:03:58;20.70;99.90
3330;DHT22;1677;49.576;10.990;2022-09-09T16:06:25;20.50;99.90
3330;DHT22;1677;49.576;10.990;2022-09-09T16:08:55;20.40;99.90
3330;DHT22;1677;49.576;10.990;2022-09-09T16:11:23;20.40;99.90
3330;DHT22;1677;49.576;10.990;2022-09-09T16:13:51;20.30;99.90
3330;DHT22;1677;49.576;10.990;2022-09-09T16:16:19;20.30;99.90
3330;DHT22;1677;49.576;10.990;2022-09-09T16:18:48;20.30;99.90
3330;DHT22;1677;49.576;10.990;2022-09-09T16:21:22;20.30;99.90
3330;DHT22;1677;49.576;10.990;2022-09-09T16:23:50;20.30;99.90
3330;DHT22;1677;49.576;10.990;2022-09-09T16:26:17;20.20;99.90
3330;DHT22;1677;49.576;10.990;2022-09-09T16:28:42;20.50;99.90
3330;DHT22;1677;49.576;10.990;2022-09-09T16:31:10;21.10;99.90
3330;DHT22;1677;49.576;10.990;2022-09-09T16:33:37;21.90;98.40
3330;DHT22;1677;49.576;10.990;2022-09-09T16:36:10;22.30;97.20
3330;DHT22;1677;49.576;10.990;2022-09-09T16:38:37;22.30;96.90
3330;DHT22;1677;49.576;10.990;2022-09-09T16:41:03;22.50;96.60
3330;DHT22;1677;49.576;10.990;2022-09-09T16:43:31;22.60;96.40
3330;DHT22;1677;49.576;10.990;2022-09-09T16:45:57;22.20;97.00
3330;DHT22;1677;49.576;10.990;2022-09-09T16:48:26;21.80;97.80
3330;DHT22;1677;49.576;10.990;2022-09-09T16:50:52;21.50;98.80
3330;DHT22;1677;49.576;10.990;2022-09-09T16:53:18;21.10;99.90
3330;DHT22;1677;49.576;10.990;2022-09-09T16:55:43;20.80;99.70
3330;DHT22;1677;49.576;10.990;2022-09-09T16:58:12;20.40;99.90
3330;DHT22;1677;49.576;10.990;2022-09-09T17:00:38;20.10;99.90
3330;DHT22;1677;49.576;10.990;2022-09-09T17:03:04;19.90;99.90
3330;DHT22;1677;49.576;10.990;2022-09-09T17:05:29;19.70;99.90
3330;DHT22;1677;49.576;10.990;2022-09-09T17:07:55;19.60;99.90
3330;DHT22;1677;49.576;10.990;2022-09-09T17:10:24;19.60;99.90
3330;DHT22;1677;49.576;10.990;2022-09-09T17:12:50;19.50;99.90
3330;DHT22;1677;49.576;10.990;2022-09-09T17:15:16;19.50;99.90
3330;DHT22;1677;49.576;10.990;2022-09-09T17:17:43;19.40;99.90
3330;DHT22;1677;49.576;10.990;2022-09-09T17:20:10;19.70;99.90
3330;DHT22;1677;49.576;10.990;2022-09-09T17:22:37;20.40;99.90
3330;DHT22;1677;49.576;10.990;2022-09-09T17:25:03;21.00;99.90
3330;DHT22;1677;49.576;10.990;2022-09-09T17:27:29;21.40;99.50
3330;DHT22;1677;49.576;10.990;2022-09-09T17:29:57;21.60;98.70
3330;DHT22;1677;49.576;10.990;2022-09-09T17:32:22;21.40;99.90
3330;DHT22;1677;49.576;10.990;2022-09-09T17:34:48;21.30;99.90
3330;DHT22;1677;49.576;10.990;2022-09-09T17:37:13;21.20;99.90
3330;DHT22;1677;49.576;10.990;2022-09-09T17:39:39;20.90;99.10
3330;DHT22;1677;49.576;10.990;2022-09-09T17:42:05;20.60;97.00
3330;DHT22;1677;49.576;10.990;2022-09-09T17:44:32;20.30;98.60
3330;DHT22;1677;49.576;10.990;2022-09-09T17:46:58;20.10;99.70
3330;DHT22;1677;49.576;10.990;2022-09-09T17:49:25;19.80;99.30
3330;DHT22;1677;49.576;10.990;2022-09-09T17:51:50;19.60;99.90
3330;DHT22;1677;49.576;10.990;2022-09-09T17:54:18;19.50;99.90